Portada
METAR-TAF:

METAR-TAF

Aeropuertos :

Aeropuerto Internacional Fua'amotu

Tongatapu, Tonga

latitud: 21-14S, longitud: 175-09W, altitud: 38 m

Observación

El informe se hizo hace 55 minutos, a las 14:00 UTC
Viento 7 kt del este
Temperatura 25°C
Humedad 83%
Presión 1018 hPa
Visibilidad 10 km o más
Escasas nubes a una altura de 1700 ft, Cumulus congestus.
Cielo nuboso a una altura de 3500 ft

METAR: NFTF 031400Z 10007KT 9999 FEW017TCU BKN035 25/22 Q1018

Hora: 03:55 (14:55 UTC)

Pronóstico

El informe se hizo hace 3 horas y 55 minutos, a las 11:00 UTC
Pronóstico válido del 03 a las 12 UTC al 04 a las 12 UTC
Viento 6 kt del este
Visibilidad 10 km o más
Escasas nubes a una altura de 1600 ft
Cielo nuboso a una altura de 4000 ft

TAF: NFTF 031100Z 0312/0412 10006KT 9999 FEW016 BKN040

Observaciones y pronósticos meteorológicos de más de 4000 aeropuertos (mensajes METAR y TAF).

Los puntos amarillos y rojos representan las estaciones disponibles.

Ponga el ratón en el punto deseado para ver el nombre de la estación.

Haga clic para ver las observaciones y los pronósticos meteorológicos.

Para cambiar el mapa : haga clic en los botones verdes con una cruz de color negro para hacer un zoom, en el botón verde con un guión para alejar o en las flechas verdes para mapas adyacentes.


METAR-TAF: